createdAt,value
2022-08-12T00:03:17.732Z,3.10
2022-08-12T00:06:41.567Z,2.85
2022-08-12T00:10:01.151Z,3.10
2022-08-12T00:13:20.689Z,3.15
2022-08-12T00:16:40.270Z,2.70
2022-08-12T00:19:59.910Z,3.42
2022-08-12T00:23:21.168Z,3.25
2022-08-12T00:26:41.493Z,3.53
2022-08-12T00:30:02.318Z,2.95
2022-08-12T00:33:22.702Z,3.10
2022-08-12T00:36:50.372Z,3.22
2022-08-12T00:40:11.990Z,3.15
2022-08-12T00:43:16.783Z,3.38
2022-08-12T00:46:32.947Z,3.22
2022-08-12T00:49:35.737Z,3.70
2022-08-12T00:52:37.096Z,3.75
2022-08-12T00:55:46.808Z,3.85
2022-08-12T00:58:51.036Z,3.40
2022-08-12T01:02:04.243Z,3.03
2022-08-12T01:05:38.795Z,3.22
2022-08-12T01:08:59.584Z,3.15
2022-08-12T01:12:01.967Z,3.10
2022-08-12T01:15:04.182Z,2.70
2022-08-12T01:18:06.873Z,2.70
2022-08-12T01:21:24.835Z,2.80
2022-08-12T01:25:07.232Z,2.47
2022-08-12T01:28:14.610Z,2.90
2022-08-12T01:31:20.269Z,2.60
2022-08-12T01:34:36.186Z,2.58
2022-08-12T01:38:08.543Z,2.47
2022-08-12T01:41:14.061Z,2.72
2022-08-12T01:44:20.585Z,3.17
2022-08-12T01:48:15.164Z,2.65
2022-08-12T01:52:14.843Z,2.90
2022-08-12T01:55:23.668Z,2.90
2022-08-12T01:59:01.238Z,2.78
2022-08-12T02:02:11.407Z,2.80
2022-08-12T02:05:49.171Z,2.83
2022-08-12T02:09:18.601Z,2.80
2022-08-12T02:13:00.800Z,2.75
2022-08-12T02:16:32.053Z,2.80
2022-08-12T02:20:10.100Z,2.78
2022-08-12T02:23:15.240Z,2.97
2022-08-12T02:26:18.702Z,2.97
2022-08-12T02:29:20.323Z,3.38
2022-08-12T02:32:22.302Z,3.33
2022-08-12T02:35:26.674Z,3.00
2022-08-12T02:38:31.298Z,3.30
2022-08-12T02:41:37.241Z,2.90
2022-08-12T02:44:44.871Z,2.95
2022-08-12T02:47:58.318Z,3.40
2022-08-12T02:51:07.529Z,3.20
2022-08-12T02:54:08.785Z,3.40
2022-08-12T02:57:13.378Z,3.63
2022-08-12T03:00:16.342Z,3.58
2022-08-12T03:03:22.493Z,3.40
2022-08-12T03:06:27.573Z,3.90
2022-08-12T03:09:43.090Z,3.72
2022-08-12T03:13:00.564Z,3.92
2022-08-12T03:16:02.249Z,3.92
2022-08-12T03:19:04.042Z,3.75
2022-08-12T03:22:13.687Z,3.85
2022-08-12T03:25:27.611Z,3.80
2022-08-12T03:28:51.322Z,3.65
2022-08-12T03:32:00.631Z,3.35
2022-08-12T03:35:07.538Z,3.90
2022-08-12T03:38:12.568Z,3.80
2022-08-12T03:41:36.146Z,3.90
2022-08-12T03:45:34.540Z,4.32
2022-08-12T03:49:03.838Z,3.45
2022-08-12T03:52:24.982Z,3.63
2022-08-12T03:55:44.942Z,4.15
2022-08-12T03:59:05.223Z,3.95
2022-08-12T04:02:06.195Z,4.63
2022-08-12T04:05:12.947Z,4.68
2022-08-12T04:08:26.669Z,4.00
2022-08-12T04:11:47.626Z,4.65
2022-08-12T04:14:49.939Z,4.07
2022-08-12T04:18:06.697Z,4.20
2022-08-12T04:21:12.398Z,4.28
2022-08-12T04:24:13.602Z,4.18
2022-08-12T04:27:15.265Z,4.03
2022-08-12T04:30:32.688Z,4.25
2022-08-12T04:33:37.400Z,4.90
2022-08-12T04:36:41.244Z,4.40
2022-08-12T04:39:43.991Z,4.35
2022-08-12T04:42:45.839Z,4.32
2022-08-12T04:45:48.235Z,4.38
2022-08-12T04:48:49.688Z,4.20
2022-08-12T04:51:54.616Z,4.20
2022-08-12T04:55:01.392Z,4.18
2022-08-12T04:58:02.457Z,4.35
2022-08-12T05:01:03.952Z,4.32
2022-08-12T05:04:08.197Z,4.38
2022-08-12T05:07:09.062Z,4.10
2022-08-12T05:10:10.626Z,4.13
2022-08-12T05:13:17.047Z,4.18
2022-08-12T05:16:18.084Z,3.93
2022-08-12T05:19:29.751Z,3.88
2022-08-12T05:22:32.167Z,3.90
2022-08-12T05:25:38.739Z,5.00
2022-08-12T05:28:40.697Z,4.10
2022-08-12T05:31:48.243Z,5.00
2022-08-12T05:34:50.711Z,3.63
2022-08-12T05:38:15.410Z,4.20
2022-08-12T05:41:22.080Z,4.10
2022-08-12T05:44:23.190Z,4.10
2022-08-12T05:47:24.440Z,4.43
2022-08-12T05:50:46.750Z,3.72
2022-08-12T05:53:48.542Z,3.75
2022-08-12T05:56:49.986Z,3.80
2022-08-12T05:59:50.807Z,3.65
2022-08-12T06:03:03.988Z,3.15
2022-08-12T06:06:07.276Z,3.45
2022-08-12T06:09:11.479Z,3.72
2022-08-12T06:12:12.761Z,3.15
2022-08-12T06:15:14.037Z,3.78
2022-08-12T06:18:16.360Z,3.05
2022-08-12T06:21:23.468Z,3.47
2022-08-12T06:24:28.728Z,3.67
2022-08-12T06:27:29.927Z,3.13
2022-08-12T06:30:38.436Z,3.88
2022-08-12T06:33:55.747Z,3.75
2022-08-12T06:37:02.096Z,3.33
2022-08-12T06:40:04.786Z,3.60
2022-08-12T06:43:05.939Z,3.30
2022-08-12T06:46:06.936Z,3.28
2022-08-12T06:49:08.883Z,3.30
2022-08-12T06:52:09.656Z,3.25
2022-08-12T06:55:20.911Z,3.50
2022-08-12T06:58:25.235Z,3.90
2022-08-12T07:01:26.868Z,3.88
2022-08-12T07:04:43.216Z,4.10
2022-08-12T07:07:48.069Z,4.03
2022-08-12T07:10:59.300Z,3.95
2022-08-12T07:14:12.987Z,3.95
2022-08-12T07:17:18.251Z,4.03
2022-08-12T07:20:42.620Z,3.75
2022-08-12T07:23:42.355Z,4.00
2022-08-12T07:26:44.835Z,4.10
2022-08-12T07:30:03.776Z,4.50
2022-08-12T07:33:09.450Z,4.45
2022-08-12T07:36:14.414Z,3.90
2022-08-12T07:39:15.613Z,3.97
2022-08-12T07:42:17.220Z,3.95
2022-08-12T07:45:18.110Z,4.25
2022-08-12T07:48:19.575Z,3.90
2022-08-12T07:51:24.989Z,4.15
2022-08-12T07:54:27.195Z,4.47
2022-08-12T07:57:28.070Z,4.10
2022-08-12T08:00:32.827Z,4.20
2022-08-12T08:03:34.687Z,4.32
2022-08-12T08:06:44.930Z,4.60
2022-08-12T08:09:46.127Z,4.35
2022-08-12T08:12:53.690Z,4.18
2022-08-12T08:19:05.318Z,4.30
2022-08-12T08:22:06.055Z,4.25
2022-08-12T08:25:35.304Z,4.32
2022-08-12T08:28:29.440Z,4.60
2022-08-12T08:31:30.638Z,4.70
2022-08-12T08:34:53.129Z,4.75
2022-08-12T08:37:53.301Z,4.80
2022-08-12T08:41:12.808Z,4.20
2022-08-12T08:44:39.665Z,4.75
2022-08-12T08:50:46.108Z,4.15
2022-08-12T08:54:08.806Z,4.90
2022-08-12T08:57:10.090Z,4.82
2022-08-12T09:00:20.711Z,4.55
2022-08-12T09:04:21.377Z,4.45
2022-08-12T09:06:53.787Z,5.35
2022-08-12T09:10:02.097Z,4.65
2022-08-12T09:13:29.090Z,4.00
2022-08-12T09:16:45.659Z,5.15
2022-08-12T09:19:57.330Z,4.32
2022-08-12T09:23:01.417Z,4.55
2022-08-12T09:26:10.057Z,4.65
2022-08-12T09:29:14.317Z,5.30
2022-08-12T09:32:56.722Z,4.55
2022-08-12T09:35:44.451Z,3.72
2022-08-12T09:38:58.949Z,5.00
2022-08-12T09:42:40.495Z,4.40
2022-08-12T09:46:11.004Z,4.10
2022-08-12T09:49:16.239Z,3.65
2022-08-12T09:52:19.321Z,4.20
2022-08-12T09:56:06.176Z,4.13
2022-08-12T09:58:56.725Z,4.30
2022-08-12T10:02:44.817Z,4.45
2022-08-12T10:05:22.851Z,4.60
2022-08-12T10:08:44.643Z,3.67
2022-08-12T10:12:13.176Z,4.10
2022-08-12T10:15:15.524Z,4.20
2022-08-12T10:18:51.983Z,4.65
2022-08-12T10:21:56.728Z,3.60
2022-08-12T10:25:17.837Z,3.97
2022-08-12T10:28:38.937Z,4.00
2022-08-12T10:32:21.684Z,3.72
2022-08-12T10:35:02.146Z,3.92
2022-08-12T10:38:35.355Z,4.10
2022-08-12T10:41:58.544Z,4.18
2022-08-12T10:45:07.971Z,3.30
2022-08-12T10:48:21.768Z,3.20
2022-08-12T10:51:56.520Z,3.45
2022-08-12T10:54:56.213Z,3.47
2022-08-12T10:58:14.199Z,3.17
2022-08-12T11:04:14.723Z,3.00
2022-08-12T11:04:49.119Z,3.47
2022-08-12T11:08:37.084Z,3.13
2022-08-12T11:12:07.741Z,3.30
2022-08-12T11:14:49.157Z,3.80
2022-08-12T11:17:53.363Z,3.35
2022-08-12T11:20:57.991Z,3.40
2022-08-12T11:23:59.274Z,3.45
2022-08-12T11:27:11.011Z,3.65
2022-08-12T11:30:31.605Z,3.83
2022-08-12T11:34:05.099Z,3.28
2022-08-12T11:37:26.130Z,3.90
2022-08-12T11:40:28.805Z,3.03
2022-08-12T11:43:30.905Z,3.65
2022-08-12T11:46:37.388Z,3.38
2022-08-12T11:49:38.665Z,3.85
2022-08-12T11:52:56.318Z,3.45
2022-08-12T11:55:58.442Z,4.00
2022-08-12T12:02:02.052Z,3.13
2022-08-12T12:02:21.586Z,4.20
2022-08-12T12:05:22.794Z,3.15
2022-08-12T12:08:40.918Z,3.55
2022-08-12T12:11:49.381Z,3.35
2022-08-12T12:14:54.512Z,3.70
2022-08-12T12:17:56.607Z,3.30
2022-08-12T12:21:02.351Z,3.00
2022-08-12T12:24:06.467Z,3.53
2022-08-12T12:27:09.030Z,3.70
2022-08-12T12:30:18.523Z,4.15
2022-08-12T12:33:57.380Z,3.97
2022-08-12T12:36:54.820Z,3.45
2022-08-12T12:39:58.476Z,4.07
2022-08-12T12:43:05.167Z,4.15
2022-08-12T12:46:06.898Z,3.90
2022-08-12T12:49:10.993Z,4.00
2022-08-12T12:52:18.676Z,4.10
2022-08-12T12:55:23.416Z,3.85
2022-08-12T12:58:34.118Z,3.90
2022-08-12T13:01:41.964Z,3.58
2022-08-12T13:04:43.116Z,4.03
2022-08-12T13:07:54.251Z,4.10
2022-08-12T13:11:03.300Z,11.50
2022-08-12T13:14:12.555Z,12.00
2022-08-12T13:17:17.736Z,7.20
2022-08-12T13:20:38.526Z,3.65
2022-08-12T13:23:46.529Z,3.92
2022-08-12T13:26:48.881Z,3.70
2022-08-12T13:29:50.213Z,3.40
2022-08-12T13:33:00.630Z,3.70
2022-08-12T13:36:07.694Z,3.78
2022-08-12T13:39:12.416Z,3.63
2022-08-12T13:42:17.300Z,3.85
2022-08-12T13:45:18.885Z,3.58
2022-08-12T13:48:20.120Z,3.65
2022-08-12T13:51:24.383Z,3.95
2022-08-12T13:54:25.575Z,3.30
2022-08-12T13:57:47.003Z,4.28
2022-08-12T14:00:52.016Z,3.72
2022-08-12T14:03:54.381Z,4.32
2022-08-12T14:06:55.776Z,4.57
2022-08-12T14:10:16.927Z,3.95
2022-08-12T14:14:03.717Z,4.35
2022-08-12T14:16:49.339Z,4.30
2022-08-12T14:20:10.752Z,3.90
2022-08-12T14:24:01.093Z,4.00
2022-08-12T14:26:33.733Z,4.30
2022-08-12T14:29:56.430Z,4.32
2022-08-12T14:32:55.754Z,4.53
2022-08-12T14:35:57.533Z,3.40
2022-08-12T14:39:00.726Z,4.22
2022-08-12T14:42:01.970Z,7.28
2022-08-12T14:45:02.915Z,5.95
2022-08-12T14:48:08.747Z,17.83
2022-08-12T14:52:48.298Z,7.35
2022-08-12T14:57:58.502Z,6.75
2022-08-12T15:01:21.202Z,5.97
2022-08-12T15:04:29.251Z,7.53
2022-08-12T15:07:34.469Z,8.10
2022-08-12T15:10:53.930Z,7.18
2022-08-12T15:13:55.972Z,5.80
2022-08-12T15:16:56.847Z,6.15
2022-08-12T15:20:31.762Z,10.90
2022-08-12T15:23:29.200Z,8.55
2022-08-12T15:26:40.961Z,6.15
2022-08-12T15:29:41.818Z,8.80
2022-08-12T15:32:48.665Z,5.75
2022-08-12T15:35:53.424Z,7.10
2022-08-12T15:38:55.058Z,8.30
2022-08-12T15:41:56.951Z,5.53
2022-08-12T15:45:03.785Z,6.10
2022-08-12T15:48:16.714Z,5.57
2022-08-12T15:51:59.324Z,4.75
2022-08-12T15:55:06.209Z,5.88
2022-08-12T15:58:13.103Z,6.53
2022-08-12T16:01:19.562Z,5.85
2022-08-12T16:04:21.231Z,5.63
2022-08-12T16:07:30.168Z,7.35
2022-08-12T16:10:34.261Z,6.00
2022-08-12T16:13:36.312Z,6.72
2022-08-12T16:16:37.550Z,5.28
2022-08-12T16:20:04.068Z,6.22
2022-08-12T16:23:51.117Z,6.90
2022-08-12T16:26:35.380Z,5.53
2022-08-12T16:29:54.195Z,8.98
2022-08-12T16:32:55.278Z,7.60
2022-08-12T16:35:58.399Z,8.20
2022-08-12T16:39:03.413Z,8.10
2022-08-12T16:42:04.978Z,6.50
2022-08-12T16:45:09.780Z,6.47
2022-08-12T16:48:34.182Z,8.63
2022-08-12T16:51:40.540Z,3.10
2022-08-12T16:54:42.693Z,4.03
2022-08-12T16:57:48.676Z,3.72
2022-08-12T17:00:51.777Z,7.30
2022-08-12T17:04:09.032Z,6.60
2022-08-12T17:07:17.304Z,6.63
2022-08-12T17:10:36.038Z,6.82
2022-08-12T17:13:53.104Z,6.03
2022-08-12T17:16:55.710Z,6.95
2022-08-12T17:20:34.120Z,3.92
2022-08-12T17:23:47.941Z,3.45
2022-08-12T17:26:56.455Z,5.45
2022-08-12T17:30:03.010Z,6.55
2022-08-12T17:33:07.024Z,6.20
2022-08-12T17:36:10.630Z,5.70
2022-08-12T17:39:12.645Z,6.53
2022-08-12T17:42:34.310Z,4.47
2022-08-12T17:45:39.541Z,3.95
2022-08-12T17:48:54.651Z,4.15
2022-08-12T17:52:01.987Z,5.65
2022-08-12T17:55:07.075Z,4.28
2022-08-12T17:58:36.974Z,6.68
2022-08-12T18:01:45.276Z,3.45
2022-08-12T18:05:09.393Z,3.65
2022-08-12T18:08:11.230Z,3.50
2022-08-12T18:12:04.479Z,6.18
2022-08-12T18:14:54.751Z,6.07
2022-08-12T18:18:02.798Z,6.32
2022-08-12T18:21:08.704Z,3.80
2022-08-12T18:24:21.602Z,3.70
2022-08-12T18:27:43.786Z,5.20
2022-08-12T18:30:52.254Z,5.10
2022-08-12T18:33:54.772Z,5.38
2022-08-12T18:37:10.210Z,3.80
2022-08-12T18:40:44.585Z,3.45
2022-08-12T18:43:58.726Z,4.82
2022-08-12T18:47:04.931Z,5.82
2022-08-12T18:50:06.568Z,3.58
2022-08-12T18:54:05.528Z,4.20
2022-08-12T18:56:39.673Z,5.90
2022-08-12T19:00:00.783Z,5.72
2022-08-12T19:03:23.367Z,4.60
2022-08-12T19:06:36.026Z,4.47
2022-08-12T19:09:58.907Z,4.57
2022-08-12T19:13:23.324Z,5.32
2022-08-12T19:16:25.444Z,4.43
2022-08-12T19:19:27.506Z,4.82
2022-08-12T19:22:38.980Z,5.30
2022-08-12T19:26:01.605Z,5.00
2022-08-12T19:29:06.966Z,4.47
2022-08-12T19:32:13.759Z,4.38
2022-08-12T19:38:36.170Z,4.45
2022-08-12T19:41:55.708Z,4.47
2022-08-12T19:45:05.103Z,4.10
2022-08-12T19:48:17.469Z,4.32
2022-08-12T19:51:33.294Z,4.75
2022-08-12T19:54:34.495Z,4.43
2022-08-12T19:57:36.468Z,3.75
2022-08-12T20:00:44.768Z,3.72
2022-08-12T20:03:59.129Z,4.03
2022-08-12T20:07:01.601Z,4.32
2022-08-12T20:10:09.254Z,4.40
2022-08-12T20:13:18.098Z,4.20
2022-08-12T20:16:47.411Z,4.50
2022-08-12T20:20:01.701Z,4.07
2022-08-12T20:23:06.349Z,4.15
2022-08-12T20:26:11.108Z,4.78
2022-08-12T20:29:13.796Z,5.28
2022-08-12T20:32:15.103Z,3.95
2022-08-12T20:35:25.164Z,3.85
2022-08-12T20:38:46.762Z,4.20
2022-08-12T20:41:50.923Z,4.03
2022-08-12T20:44:53.039Z,3.45
2022-08-12T20:48:01.616Z,3.70
2022-08-12T20:51:19.493Z,4.00
2022-08-12T20:54:22.481Z,4.32
2022-08-12T20:57:24.104Z,3.78
2022-08-12T21:00:28.212Z,3.85
2022-08-12T21:03:52.725Z,3.38
2022-08-12T21:07:08.169Z,3.58
2022-08-12T21:10:11.181Z,3.47
2022-08-12T21:13:20.498Z,3.35
2022-08-12T21:16:35.622Z,3.50
2022-08-12T21:19:53.034Z,3.10
2022-08-12T21:22:55.270Z,3.47
2022-08-12T21:26:01.184Z,3.50
2022-08-12T21:29:04.818Z,2.55
2022-08-12T21:32:36.986Z,2.90
2022-08-12T21:35:27.848Z,3.00
2022-08-12T21:38:34.805Z,2.70
2022-08-12T21:41:37.860Z,2.90
2022-08-12T21:45:47.732Z,2.90
2022-08-12T21:48:00.579Z,2.97
2022-08-12T21:51:01.283Z,2.80
2022-08-12T21:54:06.795Z,2.70
2022-08-12T21:57:14.096Z,2.60
2022-08-12T22:00:17.011Z,2.63
2022-08-12T22:04:03.407Z,2.83
2022-08-12T22:06:59.290Z,2.38
2022-08-12T22:10:00.272Z,2.63
2022-08-12T22:13:06.919Z,2.60
2022-08-12T22:16:31.100Z,2.20
2022-08-12T22:19:35.491Z,2.10
2022-08-12T22:22:38.131Z,2.35
2022-08-12T22:25:40.129Z,2.55
2022-08-12T22:29:04.035Z,2.38
2022-08-12T22:32:05.743Z,1.83
2022-08-12T22:35:56.705Z,2.25
2022-08-12T22:38:55.694Z,2.10
2022-08-12T22:42:19.845Z,2.47
2022-08-12T22:45:48.606Z,1.95
2022-08-12T22:48:57.777Z,1.80
2022-08-12T22:52:08.635Z,2.00
2022-08-12T22:55:12.513Z,2.00
2022-08-12T22:58:13.794Z,1.92
2022-08-12T23:01:50.204Z,2.10
2022-08-12T23:04:38.722Z,1.95
2022-08-12T23:08:00.004Z,2.10
2022-08-12T23:11:05.984Z,2.08
2022-08-12T23:14:07.495Z,2.20
2022-08-12T23:17:08.770Z,2.13
2022-08-12T23:20:29.970Z,2.08
2022-08-12T23:23:30.580Z,2.00
2022-08-12T23:27:10.273Z,2.20
2022-08-12T23:30:19.029Z,2.03
2022-08-12T23:34:02.579Z,2.10
2022-08-12T23:36:44.655Z,2.10
2022-08-12T23:40:08.335Z,1.95
2022-08-12T23:43:12.415Z,2.15
2022-08-12T23:46:18.415Z,2.22
2022-08-12T23:49:55.720Z,1.90
2022-08-12T23:52:46.579Z,2.15
2022-08-12T23:55:50.059Z,1.73
2022-08-12T23:58:57.435Z,3.50
